sensor_id;sensor_type;location;lat;lon;timestamp;pressure;altitude;pressure_sealevel;temperature;humidity
69173;BME280;56280;49.662;8.408;2023-03-29T00:01:45;101067.50;;;8.23;68.99
69173;BME280;56280;49.662;8.408;2023-03-29T00:04:12;101059.09;;;8.31;69.38
69173;BME280;56280;49.662;8.408;2023-03-29T00:06:37;101049.63;;;8.27;68.46
69173;BME280;56280;49.662;8.408;2023-03-29T00:09:04;101041.50;;;8.44;69.48
69173;BME280;56280;49.662;8.408;2023-03-29T00:11:30;101039.41;;;8.35;68.39
69173;BME280;56280;49.662;8.408;2023-03-29T00:13:55;101058.47;;;8.40;68.48
69173;BME280;56280;49.662;8.408;2023-03-29T00:16:21;101049.44;;;8.44;68.82
69173;BME280;56280;49.662;8.408;2023-03-29T00:18:47;101049.91;;;8.51;68.56
69173;BME280;56280;49.662;8.408;2023-03-29T00:21:12;101035.06;;;8.48;68.38
69173;BME280;56280;49.662;8.408;2023-03-29T00:23:38;101041.03;;;8.52;68.86
69173;BME280;56280;49.662;8.408;2023-03-29T00:26:03;101046.97;;;8.55;68.64
69173;BME280;56280;49.662;8.408;2023-03-29T00:28:28;101039.13;;;8.54;68.38
69173;BME280;56280;49.662;8.408;2023-03-29T00:31:10;101042.13;;;8.62;68.31
69173;BME280;56280;49.662;8.408;2023-03-29T00:33:35;101022.28;;;8.55;68.17
69173;BME280;56280;49.662;8.408;2023-03-29T00:36:01;101049.97;;;8.64;68.08
69173;BME280;56280;49.662;8.408;2023-03-29T00:38:28;101030.78;;;8.60;68.39
69173;BME280;56280;49.662;8.408;2023-03-29T00:40:53;101026.03;;;8.65;68.25
69173;BME280;56280;49.662;8.408;2023-03-29T00:43:18;101022.91;;;8.73;68.23
69173;BME280;56280;49.662;8.408;2023-03-29T00:45:44;101016.00;;;8.70;69.00
69173;BME280;56280;49.662;8.408;2023-03-29T00:48:11;101020.75;;;8.65;70.09
69173;BME280;56280;49.662;8.408;2023-03-29T00:50:45;101037.03;;;8.59;70.28
69173;BME280;56280;49.662;8.408;2023-03-29T00:53:17;101015.56;;;8.49;69.47
69173;BME280;56280;49.662;8.408;2023-03-29T00:55:48;101019.94;;;8.50;69.14
69173;BME280;56280;49.662;8.408;2023-03-29T00:58:20;101019.66;;;8.40;69.03
69173;BME280;56280;49.662;8.408;2023-03-29T01:00:52;101007.38;;;8.25;69.41
69173;BME280;56280;49.662;8.408;2023-03-29T01:03:20;101007.91;;;8.30;69.07
69173;BME280;56280;49.662;8.408;2023-03-29T01:05:56;101012.09;;;8.34;69.57
69173;BME280;56280;49.662;8.408;2023-03-29T01:08:31;101019.66;;;8.40;69.23
69173;BME280;56280;49.662;8.408;2023-03-29T01:14:06;100990.72;;;8.37;68.79
69173;BME280;56280;49.662;8.408;2023-03-29T01:16:32;101005.81;;;8.50;68.75
69173;BME280;56280;49.662;8.408;2023-03-29T01:18:59;100993.00;;;8.29;69.08
69173;BME280;56280;49.662;8.408;2023-03-29T01:21:33;101009.63;;;8.46;69.01
69173;BME280;56280;49.662;8.408;2023-03-29T01:24:14;100989.38;;;8.45;69.09
69173;BME280;56280;49.662;8.408;2023-03-29T01:26:52;101002.44;;;8.48;69.11
69173;BME280;56280;49.662;8.408;2023-03-29T01:32:00;100988.53;;;8.44;69.12
69173;BME280;56280;49.662;8.408;2023-03-29T01:34:36;100994.84;;;8.56;69.53
69173;BME280;56280;49.662;8.408;2023-03-29T01:37:10;100974.16;;;8.48;69.12
69173;BME280;56280;49.662;8.408;2023-03-29T01:39:36;100988.91;;;8.52;69.05
69173;BME280;56280;49.662;8.408;2023-03-29T01:45:08;100955.53;;;8.35;69.75
69173;BME280;56280;49.662;8.408;2023-03-29T01:47:53;100977.63;;;8.63;69.33
69173;BME280;56280;49.662;8.408;2023-03-29T01:50:43;100966.84;;;8.66;68.64
69173;BME280;56280;49.662;8.408;2023-03-29T01:55:49;100968.31;;;8.70;68.45
69173;BME280;56280;49.662;8.408;2023-03-29T01:58:16;100967.38;;;8.71;68.71
69173;BME280;56280;49.662;8.408;2023-03-29T02:00:44;100941.25;;;8.52;68.25
69173;BME280;56280;49.662;8.408;2023-03-29T02:03:10;100960.63;;;8.53;68.71
69173;BME280;56280;49.662;8.408;2023-03-29T02:05:38;100970.41;;;8.65;68.39
69173;BME280;56280;49.662;8.408;2023-03-29T02:08:06;100955.28;;;8.67;68.69
69173;BME280;56280;49.662;8.408;2023-03-29T02:10:33;100934.63;;;8.72;67.85
69173;BME280;56280;49.662;8.408;2023-03-29T02:12:59;100934.63;;;8.72;68.01
69173;BME280;56280;49.662;8.408;2023-03-29T02:15:25;100929.13;;;8.75;68.10
69173;BME280;56280;49.662;8.408;2023-03-29T02:17:51;100933.19;;;8.81;67.79
69173;BME280;56280;49.662;8.408;2023-03-29T02:20:29;100921.50;;;8.84;67.53
69173;BME280;56280;49.662;8.408;2023-03-29T02:25:28;100930.88;;;8.62;68.60
69173;BME280;56280;49.662;8.408;2023-03-29T02:27:54;100915.19;;;8.59;67.95
69173;BME280;56280;49.662;8.408;2023-03-29T02:30:20;100921.47;;;8.71;68.53
69173;BME280;56280;49.662;8.408;2023-03-29T02:32:52;100921.72;;;8.68;68.21
69173;BME280;56280;49.662;8.408;2023-03-29T02:35:26;100919.06;;;8.68;68.53
69173;BME280;56280;49.662;8.408;2023-03-29T02:37:59;100911.44;;;8.76;67.96
69173;BME280;56280;49.662;8.408;2023-03-29T02:40:28;100910.56;;;8.75;68.02
69173;BME280;56280;49.662;8.408;2023-03-29T02:42:54;100915.13;;;8.73;68.05
69173;BME280;56280;49.662;8.408;2023-03-29T02:45:21;100906.94;;;8.64;67.71
69173;BME280;56280;49.662;8.408;2023-03-29T02:47:51;100879.38;;;8.53;67.42
69173;BME280;56280;49.662;8.408;2023-03-29T02:50:18;100893.22;;;8.71;67.95
69173;BME280;56280;49.662;8.408;2023-03-29T02:52:51;100887.47;;;8.65;67.63
69173;BME280;56280;49.662;8.408;2023-03-29T02:55:20;100910.56;;;8.75;67.44
69173;BME280;56280;49.662;8.408;2023-03-29T02:57:47;100883.22;;;8.62;67.47
69173;BME280;56280;49.662;8.408;2023-03-29T03:00:13;100882.69;;;8.57;66.86
69173;BME280;56280;49.662;8.408;2023-03-29T03:02:38;100888.38;;;8.51;67.02
69173;BME280;56280;49.662;8.408;2023-03-29T03:05:04;100899.16;;;8.48;67.05
69173;BME280;56280;49.662;8.408;2023-03-29T03:07:30;100889.91;;;8.40;66.96
69173;BME280;56280;49.662;8.408;2023-03-29T03:09:55;100880.22;;;8.54;67.03
69173;BME280;56280;49.662;8.408;2023-03-29T03:12:22;100866.56;;;8.47;66.04
69173;BME280;56280;49.662;8.408;2023-03-29T03:14:47;100880.03;;;8.57;66.50
69173;BME280;56280;49.662;8.408;2023-03-29T03:17:12;100888.31;;;8.65;66.07
69173;BME280;56280;49.662;8.408;2023-03-29T03:19:37;100866.44;;;8.49;65.85
69173;BME280;56280;49.662;8.408;2023-03-29T03:22:03;100870.25;;;8.45;66.33
69173;BME280;56280;49.662;8.408;2023-03-29T03:24:30;100877.47;;;8.28;66.66
69173;BME280;56280;49.662;8.408;2023-03-29T03:26:56;100890.97;;;7.96;67.69
69173;BME280;56280;49.662;8.408;2023-03-29T03:29:23;100894.78;;;7.92;67.94
69173;BME280;56280;49.662;8.408;2023-03-29T03:31:48;100865.34;;;7.97;67.61
69173;BME280;56280;49.662;8.408;2023-03-29T03:34:14;100886.63;;;8.22;67.51
69173;BME280;56280;49.662;8.408;2023-03-29T03:36:39;100881.03;;;8.27;66.77
69173;BME280;56280;49.662;8.408;2023-03-29T03:39:04;100875.56;;;8.30;67.00
69173;BME280;56280;49.662;8.408;2023-03-29T03:41:32;100879.91;;;8.31;67.27
69173;BME280;56280;49.662;8.408;2023-03-29T03:43:58;100876.53;;;8.29;67.43
69173;BME280;56280;49.662;8.408;2023-03-29T03:46:23;100859.31;;;7.95;69.09
69173;BME280;56280;49.662;8.408;2023-03-29T03:48:49;100860.28;;;7.94;69.37
69173;BME280;56280;49.662;8.408;2023-03-29T03:51:14;100872.22;;;8.14;69.19
69173;BME280;56280;49.662;8.408;2023-03-29T03:53:39;100871.63;;;7.81;70.16
69173;BME280;56280;49.662;8.408;2023-03-29T03:56:05;100868.69;;;7.86;70.29
69173;BME280;56280;49.662;8.408;2023-03-29T03:58:36;100860.72;;;8.00;70.17
69173;BME280;56280;49.662;8.408;2023-03-29T04:01:03;100852.50;;;8.05;69.18
69173;BME280;56280;49.662;8.408;2023-03-29T04:03:29;100865.03;;;8.16;68.75
69173;BME280;56280;49.662;8.408;2023-03-29T04:05:58;100861.88;;;8.24;68.53
69173;BME280;56280;49.662;8.408;2023-03-29T04:08:24;100855.59;;;8.12;68.17
69173;BME280;56280;49.662;8.408;2023-03-29T04:10:54;100872.31;;;8.12;68.63
69173;BME280;56280;49.662;8.408;2023-03-29T04:13:20;100862.66;;;8.11;67.62
69173;BME280;56280;49.662;8.408;2023-03-29T04:15:46;100838.19;;;8.08;68.05
69173;BME280;56280;49.662;8.408;2023-03-29T04:18:14;100864.03;;;8.31;67.47
69173;BME280;56280;49.662;8.408;2023-03-29T04:20:39;100871.03;;;8.32;67.50
69173;BME280;56280;49.662;8.408;2023-03-29T04:23:04;100857.91;;;8.31;68.14
69173;BME280;56280;49.662;8.408;2023-03-29T04:25:30;100869.13;;;8.34;67.42
69173;BME280;56280;49.662;8.408;2023-03-29T04:27:55;100864.44;;;8.25;67.62
69173;BME280;56280;49.662;8.408;2023-03-29T04:30:20;100858.25;;;8.12;67.83
69173;BME280;56280;49.662;8.408;2023-03-29T04:32:46;100877.75;;;8.24;68.33
69173;BME280;56280;49.662;8.408;2023-03-29T04:35:11;100873.63;;;8.19;68.05
69173;BME280;56280;49.662;8.408;2023-03-29T04:37:36;100858.88;;;8.15;67.97
69173;BME280;56280;49.662;8.408;2023-03-29T04:40:05;100868.81;;;8.12;68.65
69173;BME280;56280;49.662;8.408;2023-03-29T04:42:33;100865.31;;;8.11;68.49
69173;BME280;56280;49.662;8.408;2023-03-29T04:44:58;100876.47;;;8.16;67.97
69173;BME280;56280;49.662;8.408;2023-03-29T04:47:25;100871.28;;;8.15;68.48
69173;BME280;56280;49.662;8.408;2023-03-29T04:49:53;100859.03;;;7.99;68.34
69173;BME280;56280;49.662;8.408;2023-03-29T04:52:18;100862.28;;;7.61;69.70
69173;BME280;56280;49.662;8.408;2023-03-29T04:54:43;100853.53;;;7.61;69.98
69173;BME280;56280;49.662;8.408;2023-03-29T04:57:09;100855.50;;;7.72;69.48
69173;BME280;56280;49.662;8.408;2023-03-29T04:59:34;100864.47;;;7.69;69.80
69173;BME280;56280;49.662;8.408;2023-03-29T05:01:59;100861.81;;;7.69;69.37
69173;BME280;56280;49.662;8.408;2023-03-29T05:04:27;100864.91;;;7.76;69.04
69173;BME280;56280;49.662;8.408;2023-03-29T05:06:52;100858.41;;;7.81;68.70
69173;BME280;56280;49.662;8.408;2023-03-29T05:09:18;100866.06;;;7.86;68.63
69173;BME280;56280;49.662;8.408;2023-03-29T05:11:43;100879.84;;;7.91;68.81
69173;BME280;56280;49.662;8.408;2023-03-29T05:14:10;100876.66;;;7.72;69.37
69173;BME280;56280;49.662;8.408;2023-03-29T05:16:35;100880.22;;;7.85;69.02
69173;BME280;56280;49.662;8.408;2023-03-29T05:19:02;100885.03;;;7.93;69.17
69173;BME280;56280;49.662;8.408;2023-03-29T05:21:27;100866.06;;;7.86;68.42
69173;BME280;56280;49.662;8.408;2023-03-29T05:23:53;100881.63;;;7.91;69.09
69173;BME280;56280;49.662;8.408;2023-03-29T05:26:20;100861.69;;;7.85;68.88
69173;BME280;56280;49.662;8.408;2023-03-29T05:28:46;100865.09;;;7.87;68.23
69173;BME280;56280;49.662;8.408;2023-03-29T05:31:11;100869.19;;;7.64;69.51
69173;BME280;56280;49.662;8.408;2023-03-29T05:33:36;100872.88;;;7.61;70.10
69173;BME280;56280;49.662;8.408;2023-03-29T05:36:10;100871.28;;;7.59;69.99
69173;BME280;56280;49.662;8.408;2023-03-29T05:38:37;100878.81;;;7.79;69.67
69173;BME280;56280;49.662;8.408;2023-03-29T05:41:03;100862.09;;;7.64;69.57
69173;BME280;56280;49.662;8.408;2023-03-29T05:43:28;100878.03;;;7.92;69.23
69173;BME280;56280;49.662;8.408;2023-03-29T05:45:54;100874.72;;;8.02;69.11
69173;BME280;56280;49.662;8.408;2023-03-29T05:48:20;100878.94;;;8.19;68.22
69173;BME280;56280;49.662;8.408;2023-03-29T05:50:47;100863.25;;;8.16;68.55
69173;BME280;56280;49.662;8.408;2023-03-29T05:53:13;100864.56;;;8.36;68.54
69173;BME280;56280;49.662;8.408;2023-03-29T05:55:38;100856.81;;;8.33;68.28
69173;BME280;56280;49.662;8.408;2023-03-29T05:58:03;100869.19;;;8.47;68.02
69173;BME280;56280;49.662;8.408;2023-03-29T06:00:29;100874.88;;;8.41;68.18
69173;BME280;56280;49.662;8.408;2023-03-29T06:02:56;100871.94;;;8.46;68.28
69173;BME280;56280;49.662;8.408;2023-03-29T06:05:21;100875.34;;;8.48;67.99
69173;BME280;56280;49.662;8.408;2023-03-29T06:07:46;100864.44;;;8.25;68.99
69173;BME280;56280;49.662;8.408;2023-03-29T06:10:13;100879.78;;;8.47;69.33
69173;BME280;56280;49.662;8.408;2023-03-29T06:12:39;100867.63;;;8.57;68.14
69173;BME280;56280;49.662;8.408;2023-03-29T06:15:05;100877.50;;;8.68;67.70
69173;BME280;56280;49.662;8.408;2023-03-29T06:17:30;100865.53;;;8.75;67.38
69173;BME280;56280;49.662;8.408;2023-03-29T06:19:58;100862.25;;;8.72;67.20
69173;BME280;56280;49.662;8.408;2023-03-29T06:22:23;100871.25;;;8.56;68.13
69173;BME280;56280;49.662;8.408;2023-03-29T06:24:48;100871.41;;;8.81;68.29
69173;BME280;56280;49.662;8.408;2023-03-29T06:27:13;100857.59;;;8.75;67.14
69173;BME280;56280;49.662;8.408;2023-03-29T06:29:39;100865.53;;;8.75;67.51
69173;BME280;56280;49.662;8.408;2023-03-29T06:32:05;100888.50;;;9.28;67.21
69173;BME280;56280;49.662;8.408;2023-03-29T06:34:31;100876.06;;;9.41;66.22
69173;BME280;56280;49.662;8.408;2023-03-29T06:36:56;100883.69;;;9.59;66.46
69173;BME280;56280;49.662;8.408;2023-03-29T06:39:22;100886.72;;;9.78;65.67
69173;BME280;56280;49.662;8.408;2023-03-29T06:41:47;100883.88;;;9.81;65.28
69173;BME280;56280;49.662;8.408;2023-03-29T06:44:13;100881.94;;;9.83;65.08
69173;BME280;56280;49.662;8.408;2023-03-29T06:46:39;100879.59;;;9.92;64.59
69173;BME280;56280;49.662;8.408;2023-03-29T06:49:04;100888.38;;;10.05;64.46
69173;BME280;56280;49.662;8.408;2023-03-29T06:51:30;100867.50;;;9.88;64.47
69173;BME280;56280;49.662;8.408;2023-03-29T06:53:55;100879.94;;;9.87;64.44
69173;BME280;56280;49.662;8.408;2023-03-29T06:56:20;100895.31;;;9.82;64.77
69173;BME280;56280;49.662;8.408;2023-03-29T06:58:46;100882.81;;;9.84;63.21
69173;BME280;56280;49.662;8.408;2023-03-29T07:01:12;100899.66;;;9.96;64.17
69173;BME280;56280;49.662;8.408;2023-03-29T07:03:38;100883.13;;;9.79;63.06
69173;BME280;56280;49.662;8.408;2023-03-29T07:06:04;100891.59;;;9.84;62.92
69173;BME280;56280;49.662;8.408;2023-03-29T07:08:35;100883.25;;;9.78;62.98
69173;BME280;56280;49.662;8.408;2023-03-29T07:11:01;100894.59;;;9.67;64.13
69173;BME280;56280;49.662;8.408;2023-03-29T07:13:27;100886.09;;;9.88;63.93
69173;BME280;56280;49.662;8.408;2023-03-29T07:15:52;100894.59;;;10.17;63.40
69173;BME280;56280;49.662;8.408;2023-03-29T07:18:17;100893.28;;;10.35;62.73
69173;BME280;56280;49.662;8.408;2023-03-29T07:20:43;100888.13;;;10.45;62.01
69173;BME280;56280;49.662;8.408;2023-03-29T07:23:09;100898.59;;;10.60;62.42
69173;BME280;56280;49.662;8.408;2023-03-29T07:25:35;100899.63;;;10.81;61.84
69173;BME280;56280;49.662;8.408;2023-03-29T07:28:01;100900.56;;;10.80;60.46
69173;BME280;56280;49.662;8.408;2023-03-29T07:30:27;100887.22;;;10.57;61.13
69173;BME280;56280;49.662;8.408;2023-03-29T07:32:54;100911.81;;;10.72;60.32
69173;BME280;56280;49.662;8.408;2023-03-29T07:35:21;100905.53;;;10.85;61.63
69173;BME280;56280;49.662;8.408;2023-03-29T07:37:47;100910.69;;;11.10;61.23
69173;BME280;56280;49.662;8.408;2023-03-29T07:40:15;100882.41;;;10.98;60.47
69173;BME280;56280;49.662;8.408;2023-03-29T07:42:46;100895.09;;;11.17;60.04
69173;BME280;56280;49.662;8.408;2023-03-29T07:45:13;100892.00;;;11.35;59.52
69173;BME280;56280;49.662;8.408;2023-03-29T07:47:40;100896.34;;;11.24;59.80
69173;BME280;56280;49.662;8.408;2023-03-29T07:50:07;100896.84;;;11.41;59.45
69173;BME280;56280;49.662;8.408;2023-03-29T07:52:35;100896.13;;;11.50;58.40
69173;BME280;56280;49.662;8.408;2023-03-29T07:55:00;100895.53;;;11.46;58.31
69173;BME280;56280;49.662;8.408;2023-03-29T07:57:27;100899.50;;;11.52;58.54
69173;BME280;56280;49.662;8.408;2023-03-29T07:59:53;100899.88;;;11.70;58.20
69173;BME280;56280;49.662;8.408;2023-03-29T08:02:18;100902.53;;;11.81;58.54
69173;BME280;56280;49.662;8.408;2023-03-29T08:04:44;100904.84;;;11.97;58.18
69173;BME280;56280;49.662;8.408;2023-03-29T08:07:09;100910.13;;;12.20;58.24
69173;BME280;56280;49.662;8.408;2023-03-29T08:09:34;100892.94;;;12.24;57.38
69173;BME280;56280;49.662;8.408;2023-03-29T08:12:01;100909.34;;;12.40;56.70
69173;BME280;56280;49.662;8.408;2023-03-29T08:14:26;100894.41;;;12.06;56.60
69173;BME280;56280;49.662;8.408;2023-03-29T08:16:53;100892.09;;;11.90;56.35
69173;BME280;56280;49.662;8.408;2023-03-29T08:19:18;100892.28;;;11.99;56.68
69173;BME280;56280;49.662;8.408;2023-03-29T08:21:43;100909.59;;;12.37;56.34
69173;BME280;56280;49.662;8.408;2023-03-29T08:24:09;100899.84;;;12.59;56.13
69173;BME280;56280;49.662;8.408;2023-03-29T08:26:34;100907.88;;;12.80;55.16
69173;BME280;56280;49.662;8.408;2023-03-29T08:28:59;100913.28;;;12.90;54.49
69173;BME280;56280;49.662;8.408;2023-03-29T08:31:25;100907.00;;;13.01;54.34
69173;BME280;56280;49.662;8.408;2023-03-29T08:33:51;100894.47;;;12.91;53.90
69173;BME280;56280;49.662;8.408;2023-03-29T08:36:17;100895.56;;;12.35;54.96
69173;BME280;56280;49.662;8.408;2023-03-29T08:38:42;100898.16;;;12.58;55.78
69173;BME280;56280;49.662;8.408;2023-03-29T08:41:20;100894.31;;;12.39;56.14
69173;BME280;56280;49.662;8.408;2023-03-29T08:49:15;100905.22;;;12.48;56.59
69173;BME280;56280;49.662;8.408;2023-03-29T08:51:44;100900.81;;;12.58;56.92
69173;BME280;56280;49.662;8.408;2023-03-29T08:54:20;100898.22;;;12.68;56.57
69173;BME280;56280;49.662;8.408;2023-03-29T08:56:49;100904.59;;;12.44;56.61
69173;BME280;56280;49.662;8.408;2023-03-29T08:59:20;100888.94;;;12.51;56.71
69173;BME280;56280;49.662;8.408;2023-03-29T09:01:49;100897.81;;;12.51;57.03
69173;BME280;56280;49.662;8.408;2023-03-29T09:04:19;100905.66;;;12.85;57.25
69173;BME280;56280;49.662;8.408;2023-03-29T09:06:47;100895.25;;;13.03;56.14
69173;BME280;56280;49.662;8.408;2023-03-29T09:09:27;100899.22;;;13.30;55.79
69173;BME280;56280;49.662;8.408;2023-03-29T09:14:51;100899.03;;;13.43;55.54
69173;BME280;56280;49.662;8.408;2023-03-29T09:20:06;100886.25;;;13.77;54.31
69173;BME280;56280;49.662;8.408;2023-03-29T09:22:44;100884.59;;;13.55;54.17
69173;BME280;56280;49.662;8.408;2023-03-29T09:25:18;100883.97;;;13.73;54.49
69173;BME280;56280;49.662;8.408;2023-03-29T09:27:50;100890.03;;;13.84;53.24
69173;BME280;56280;49.662;8.408;2023-03-29T09:30:45;100896.41;;;13.93;53.81
69173;BME280;56280;49.662;8.408;2023-03-29T09:33:26;100887.75;;;14.11;54.49
69173;BME280;56280;49.662;8.408;2023-03-29T09:36:01;100895.22;;;14.36;53.51
69173;BME280;56280;49.662;8.408;2023-03-29T09:38:29;100897.78;;;14.48;53.30
69173;BME280;56280;49.662;8.408;2023-03-29T09:40:59;100888.47;;;14.42;52.31
69173;BME280;56280;49.662;8.408;2023-03-29T09:43:31;100879.88;;;14.29;52.36
69173;BME280;56280;49.662;8.408;2023-03-29T09:46:02;100875.09;;;14.13;54.02
69173;BME280;56280;49.662;8.408;2023-03-29T09:48:30;100868.50;;;14.46;53.23
69173;BME280;56280;49.662;8.408;2023-03-29T09:50:59;100858.66;;;14.66;52.35
69173;BME280;56280;49.662;8.408;2023-03-29T09:53:24;100881.06;;;14.85;51.99
69173;BME280;56280;49.662;8.408;2023-03-29T09:55:50;100880.78;;;14.68;51.44
69173;BME280;56280;49.662;8.408;2023-03-29T09:58:22;100888.81;;;14.78;51.67
69173;BME280;56280;49.662;8.408;2023-03-29T10:00:49;100889.22;;;14.73;52.38
69173;BME280;56280;49.662;8.408;2023-03-29T10:03:23;100881.75;;;14.77;51.98
69173;BME280;56280;49.662;8.408;2023-03-29T10:05:51;100887.94;;;14.77;52.00
69173;BME280;56280;49.662;8.408;2023-03-29T10:08:26;100879.22;;;14.85;51.94
69173;BME280;56280;49.662;8.408;2023-03-29T10:10:53;100861.91;;;14.80;51.72
69173;BME280;56280;49.662;8.408;2023-03-29T10:13:26;100859.03;;;15.10;51.64
69173;BME280;56280;49.662;8.408;2023-03-29T10:16:07;100865.81;;;15.52;51.92
69173;BME280;56280;49.662;8.408;2023-03-29T10:18:39;100862.50;;;15.58;50.88
69173;BME280;56280;49.662;8.408;2023-03-29T10:21:05;100860.66;;;15.68;50.42
69173;BME280;56280;49.662;8.408;2023-03-29T10:23:33;100856.41;;;15.66;50.90
69173;BME280;56280;49.662;8.408;2023-03-29T10:26:05;100854.69;;;15.84;50.73
69173;BME280;56280;49.662;8.408;2023-03-29T10:28:36;100836.53;;;15.96;50.17
69173;BME280;56280;49.662;8.408;2023-03-29T10:31:01;100843.91;;;16.12;50.36
69173;BME280;56280;49.662;8.408;2023-03-29T10:33:31;100828.06;;;16.19;49.60
69173;BME280;56280;49.662;8.408;2023-03-29T10:35:58;100828.66;;;16.31;50.57
69173;BME280;56280;49.662;8.408;2023-03-29T10:38:27;100826.22;;;16.19;49.19
69173;BME280;56280;49.662;8.408;2023-03-29T10:40:53;100826.31;;;16.28;49.62
69173;BME280;56280;49.662;8.408;2023-03-29T10:43:26;100824.06;;;16.05;49.26
69173;BME280;56280;49.662;8.408;2023-03-29T10:45:55;100829.13;;;16.08;49.50
69173;BME280;56280;49.662;8.408;2023-03-29T10:48:29;100830.59;;;16.38;49.79
69173;BME280;56280;49.662;8.408;2023-03-29T10:51:00;100816.13;;;16.31;49.40
69173;BME280;56280;49.662;8.408;2023-03-29T10:53:31;100819.53;;;16.59;50.21
69173;BME280;56280;49.662;8.408;2023-03-29T10:59:14;100790.28;;;16.92;48.76
69173;BME280;56280;49.662;8.408;2023-03-29T11:06:46;100807.47;;;17.34;47.69
69173;BME280;56280;49.662;8.408;2023-03-29T11:12:07;100797.44;;;17.44;47.31
69173;BME280;56280;49.662;8.408;2023-03-29T11:26:16;100808.41;;;18.10;47.35
69173;BME280;56280;49.662;8.408;2023-03-29T11:29:07;100813.38;;;17.89;46.78
69173;BME280;56280;49.662;8.408;2023-03-29T11:34:33;100807.41;;;18.19;47.10
69173;BME280;56280;49.662;8.408;2023-03-29T11:42:22;100805.72;;;18.35;46.57
69173;BME280;56280;49.662;8.408;2023-03-29T11:44:52;100789.56;;;18.51;45.66
69173;BME280;56280;49.662;8.408;2023-03-29T11:47:26;100791.59;;;18.33;45.67
69173;BME280;56280;49.662;8.408;2023-03-29T11:50:02;100791.59;;;18.41;46.12
69173;BME280;56280;49.662;8.408;2023-03-29T11:52:38;100773.25;;;18.61;45.42
69173;BME280;56280;49.662;8.408;2023-03-29T11:55:08;100790.72;;;18.90;44.71
69173;BME280;56280;49.662;8.408;2023-03-29T11:57:39;100776.78;;;18.86;43.97
69173;BME280;56280;49.662;8.408;2023-03-29T12:00:12;100780.31;;;18.62;44.28
69173;BME280;56280;49.662;8.408;2023-03-29T12:03:05;100773.44;;;18.51;44.06
69173;BME280;56280;49.662;8.408;2023-03-29T12:05:38;100786.88;;;18.76;43.87
69173;BME280;56280;49.662;8.408;2023-03-29T12:08:28;100769.91;;;18.59;44.80
69173;BME280;56280;49.662;8.408;2023-03-29T12:11:18;100773.25;;;18.69;43.31
69173;BME280;56280;49.662;8.408;2023-03-29T12:13:49;100765.69;;;18.73;43.01
69173;BME280;56280;49.662;8.408;2023-03-29T12:17:01;100758.44;;;18.90;42.55
69173;BME280;56280;49.662;8.408;2023-03-29T12:19:25;100752.53;;;18.94;42.79
69173;BME280;56280;49.662;8.408;2023-03-29T12:21:55;100739.75;;;18.97;42.13
69173;BME280;56280;49.662;8.408;2023-03-29T12:24:24;100741.72;;;19.03;42.72
69173;BME280;56280;49.662;8.408;2023-03-29T12:27:21;100747.66;;;18.82;42.03
69173;BME280;56280;49.662;8.408;2023-03-29T12:33:06;100741.28;;;18.91;41.53
69173;BME280;56280;49.662;8.408;2023-03-29T12:38:28;100743.41;;;19.04;41.64
69173;BME280;56280;49.662;8.408;2023-03-29T12:41:09;100736.53;;;19.01;41.96
69173;BME280;56280;49.662;8.408;2023-03-29T12:43:40;100746.25;;;19.10;40.87
69173;BME280;56280;49.662;8.408;2023-03-29T12:46:16;100725.63;;;18.78;41.48
69173;BME280;56280;49.662;8.408;2023-03-29T12:48:44;100735.16;;;19.05;41.46
69173;BME280;56280;49.662;8.408;2023-03-29T12:51:15;100730.53;;;19.30;41.08
69173;BME280;56280;49.662;8.408;2023-03-29T12:53:45;100722.59;;;19.37;41.54
69173;BME280;56280;49.662;8.408;2023-03-29T12:56:22;100727.66;;;19.32;41.71
69173;BME280;56280;49.662;8.408;2023-03-29T13:01:59;100716.50;;;19.43;41.03
69173;BME280;56280;49.662;8.408;2023-03-29T13:04:57;100717.47;;;19.19;41.41
69173;BME280;56280;49.662;8.408;2023-03-29T13:10:00;100697.66;;;19.66;41.35
69173;BME280;56280;49.662;8.408;2023-03-29T13:15:00;100697.06;;;19.56;41.18
69173;BME280;56280;49.662;8.408;2023-03-29T13:17:38;100706.44;;;19.60;40.76
69173;BME280;56280;49.662;8.408;2023-03-29T13:29:02;100688.16;;;19.79;41.04
69173;BME280;56280;49.662;8.408;2023-03-29T13:34:26;100687.38;;;19.93;41.58
69173;BME280;56280;49.662;8.408;2023-03-29T13:39:55;100677.22;;;19.80;43.03
69173;BME280;56280;49.662;8.408;2023-03-29T13:45:24;100675.19;;;19.97;42.16
69173;BME280;56280;49.662;8.408;2023-03-29T13:48:00;100676.19;;;19.73;43.02
69173;BME280;56280;49.662;8.408;2023-03-29T13:50:35;100662.31;;;19.84;42.81
69173;BME280;56280;49.662;8.408;2023-03-29T13:53:11;100662.94;;;19.95;42.52
69173;BME280;56280;49.662;8.408;2023-03-29T13:55:46;100665.44;;;19.96;42.29
69173;BME280;56280;49.662;8.408;2023-03-29T13:58:30;100662.78;;;20.11;42.80
69173;BME280;56280;49.662;8.408;2023-03-29T14:01:16;100663.06;;;20.16;42.85
69173;BME280;56280;49.662;8.408;2023-03-29T14:03:47;100653.84;;;20.11;42.65
69173;BME280;56280;49.662;8.408;2023-03-29T14:06:16;100640.63;;;20.01;42.60
69173;BME280;56280;49.662;8.408;2023-03-29T14:08:46;100647.84;;;19.85;43.86
69173;BME280;56280;49.662;8.408;2023-03-29T14:11:28;100646.53;;;20.34;43.10
69173;BME280;56280;49.662;8.408;2023-03-29T14:13:56;100614.63;;;20.38;42.58
69173;BME280;56280;49.662;8.408;2023-03-29T14:16:29;100624.81;;;20.66;42.98
69173;BME280;56280;49.662;8.408;2023-03-29T14:19:02;100595.63;;;20.46;42.98
69173;BME280;56280;49.662;8.408;2023-03-29T14:21:28;100620.50;;;20.71;42.29
69173;BME280;56280;49.662;8.408;2023-03-29T14:23:57;100602.25;;;20.44;43.14
69173;BME280;56280;49.662;8.408;2023-03-29T14:26:23;100611.00;;;20.16;44.02
69173;BME280;56280;49.662;8.408;2023-03-29T14:28:51;100594.22;;;20.06;44.41
69173;BME280;56280;49.662;8.408;2023-03-29T14:31:33;100613.97;;;20.06;44.93
69173;BME280;56280;49.662;8.408;2023-03-29T14:34:01;100605.63;;;19.78;44.09